Time;durP1;ratioP1;P1;durP2;ratioP2;P2;SDS_P1;SDS_P2;PMS_P1;PMS_P2;Temp;Humidity;BMP_temperature;BMP_pressure;BME280_temperature;BME280_humidity;BME280_pressure;Samples;Min_cycle;Max_cycle;Signal;HPM_P1;HPM_P2
2023/03/24 00:01:40;;;;;;;4.15;2.72;;;;;;;10.89;100.00;99648.50;5058015;28;20320;-74
2023/03/24 00:04:06;;;;;;;4.93;2.45;;;;;;;10.90;100.00;99631.84;5057313;28;20044;-75
2023/03/24 00:06:33;;;;;;;3.83;2.70;;;;;;;10.89;100.00;99623.13;5056693;28;20031;-75
2023/03/24 00:08:59;;;;;;;4.97;3.00;;;;;;;10.89;100.00;99620.50;5058010;28;20316;-75
2023/03/24 00:11:25;;;;;;;3.92;3.42;;;;;;;10.90;100.00;99624.00;5058644;28;20044;-74
2023/03/24 00:13:51;;;;;;;4.70;2.92;;;;;;;10.89;100.00;99630.16;5057685;28;20079;-74
2023/03/24 00:16:18;;;;;;;3.85;2.72;;;;;;;10.89;100.00;99619.69;5058301;28;20060;-74
2023/03/24 00:18:44;;;;;;;8.02;2.85;;;;;;;10.89;100.00;99628.38;5057748;28;20102;-74
2023/03/24 00:21:10;;;;;;;3.13;2.70;;;;;;;10.88;100.00;99611.00;5058519;28;20356;-74
2023/03/24 00:23:36;;;;;;;8.57;3.40;;;;;;;10.89;100.00;99607.41;5058735;28;20064;-74
2023/03/24 00:26:05;;;;;;;4.28;2.75;;;;;;;10.91;100.00;99615.19;5058529;28;20055;-74
2023/03/24 00:28:32;;;;;;;4.28;2.63;;;;;;;10.91;100.00;99616.06;5059001;28;20091;-74
2023/03/24 00:31:02;;;;;;;5.85;3.38;;;;;;;10.92;100.00;99599.38;5058525;28;20043;-74
2023/03/24 00:33:31;;;;;;;6.13;2.97;;;;;;;10.92;100.00;99607.25;5058546;28;20036;-74
2023/03/24 00:35:58;;;;;;;5.75;2.83;;;;;;;10.91;100.00;99600.34;5058142;28;20033;-74
2023/03/24 00:38:24;;;;;;;5.13;2.80;;;;;;;10.92;100.00;99593.31;5058688;28;20344;-74
2023/03/24 00:40:50;;;;;;;4.97;2.88;;;;;;;10.94;100.00;99596.66;5058061;28;20040;-74
2023/03/24 00:43:15;;;;;;;3.30;2.70;;;;;;;10.95;100.00;99580.00;5040754;28;20044;-74
2023/03/24 00:45:45;;;;;;;4.82;2.80;;;;;;;10.95;100.00;99578.25;5057853;28;20033;-74
2023/03/24 00:48:19;;;;;;;3.70;3.10;;;;;;;10.95;100.00;99583.47;5058222;28;20037;-74
2023/03/24 00:50:49;;;;;;;6.25;3.60;;;;;;;10.97;100.00;99575.53;5058216;28;20288;-74
2023/03/24 00:53:15;;;;;;;4.35;3.10;;;;;;;10.97;100.00;99591.25;5058134;28;20137;-74
2023/03/24 00:55:50;;;;;;;4.10;3.00;;;;;;;10.97;100.00;99579.91;5057996;28;20264;-74
2023/03/24 00:58:18;;;;;;;4.60;2.65;;;;;;;10.97;100.00;99575.53;5058406;28;20051;-74
2023/03/24 01:00:50;;;;;;;4.07;2.70;;;;;;;10.97;100.00;99570.28;5058023;28;20040;-75
2023/03/24 01:03:17;;;;;;;6.80;3.08;;;;;;;10.98;100.00;99577.19;5058320;28;20056;-74
2023/03/24 01:05:47;;;;;;;3.10;2.80;;;;;;;10.96;100.00;99573.84;5057953;28;20044;-74
2023/03/24 01:08:19;;;;;;;3.58;2.90;;;;;;;10.96;100.00;99563.38;5058407;28;20071;-74
2023/03/24 01:10:56;;;;;;;3.55;2.75;;;;;;;10.97;100.00;99565.06;5057586;28;20293;-74
2023/03/24 01:13:27;;;;;;;4.32;3.10;;;;;;;10.98;100.00;99560.66;5057836;28;20158;-74
2023/03/24 01:15:53;;;;;;;3.25;2.90;;;;;;;10.98;100.00;99558.03;5057598;28;20099;-74
2023/03/24 01:18:20;;;;;;;2.95;2.70;;;;;;;10.98;100.00;99558.03;5057603;28;20060;-75
2023/03/24 01:20:48;;;;;;;4.50;3.03;;;;;;;10.99;100.00;99567.56;5057572;28;20032;-74
2023/03/24 01:23:20;;;;;;;3.30;3.00;;;;;;;10.99;100.00;99572.78;5057761;28;20078;-74
2023/03/24 01:25:47;;;;;;;5.60;2.85;;;;;;;10.97;100.00;99570.28;5056504;28;20040;-75
2023/03/24 01:28:16;;;;;;;4.47;3.00;;;;;;;10.98;100.00;99586.84;5058240;28;20056;-74
2023/03/24 01:30:41;;;;;;;6.78;3.45;;;;;;;10.98;100.00;99560.66;5057520;28;20024;-74
2023/03/24 01:33:07;;;;;;;7.45;3.13;;;;;;;10.97;100.00;99572.06;5057800;28;20048;-74
2023/03/24 01:35:32;;;;;;;6.80;3.75;;;;;;;10.98;100.00;99584.22;5039216;28;20041;-74
2023/03/24 01:37:58;;;;;;;5.88;3.60;;;;;;;10.97;100.00;99611.34;5057751;28;20036;-74
2023/03/24 01:40:30;;;;;;;4.55;3.00;;;;;;;10.95;100.00;99617.53;5056888;28;20096;-75
2023/03/24 01:42:57;;;;;;;3.13;2.85;;;;;;;10.97;100.00;99621.81;5038581;28;20366;-74
2023/03/24 01:45:38;;;;;;;4.82;2.65;;;;;;;10.98;100.00;99636.63;5057628;28;20350;-74
2023/03/24 01:48:17;;;;;;;5.43;3.03;;;;;;;11.01;100.00;99655.63;5037395;28;20025;-74
2023/03/24 01:50:47;;;;;;;4.38;1.92;;;;;;;11.00;100.00;99666.19;5040212;28;20123;-74
2023/03/24 01:53:14;;;;;;;3.75;1.52;;;;;;;10.99;100.00;99651.38;5057600;28;20275;-74
2023/03/24 01:55:42;;;;;;;2.25;1.30;;;;;;;10.95;100.00;99664.69;5057055;28;20033;-74
2023/03/24 01:58:08;;;;;;;7.63;1.23;;;;;;;10.91;100.00;99681.53;5039863;28;20056;-74
2023/03/24 02:00:36;;;;;;;5.32;1.17;;;;;;;10.84;100.00;99700.31;5056979;28;20033;-74
2023/03/24 02:03:08;;;;;;;8.55;1.83;;;;;;;10.78;100.00;99692.84;5053822;28;20044;-74
2023/03/24 02:05:37;;;;;;;12.00;1.70;;;;;;;10.70;100.00;99696.75;5056944;28;20323;-74
2023/03/24 02:08:29;;;;;;;8.00;1.85;;;;;;;10.60;100.00;99697.38;5057720;28;20348;-74
2023/03/24 02:10:56;;;;;;;8.88;1.73;;;;;;;10.53;100.00;99696.88;5056521;28;20229;-74
2023/03/24 02:13:22;;;;;;;7.00;1.35;;;;;;;10.49;100.00;99711.09;5057149;28;20032;-74
2023/03/24 02:16:18;;;;;;;8.57;1.52;;;;;;;10.44;100.00;99703.53;5056991;28;20032;-74
2023/03/24 02:18:53;;;;;;;6.05;1.30;;;;;;;10.39;100.00;99723.88;5036627;28;20365;-74
2023/03/24 02:21:46;;;;;;;7.50;1.40;;;;;;;10.34;100.00;99721.50;5044720;28;20037;-74
2023/03/24 02:24:38;;;;;;;10.68;1.83;;;;;;;10.21;100.00;99738.00;5057863;28;20037;-74
2023/03/24 02:27:12;;;;;;;6.05;1.25;;;;;;;10.17;100.00;99734.69;5046566;28;20255;-74
2023/03/24 02:30:10;;;;;;;5.40;1.52;;;;;;;10.12;100.00;99734.13;5056862;28;20059;-74
2023/03/24 02:33:06;;;;;;;10.67;2.07;;;;;;;10.05;100.00;99733.59;5056786;28;20205;-74
2023/03/24 02:35:50;;;;;;;8.25;1.70;;;;;;;10.02;100.00;99764.31;5038739;28;20530;-74
2023/03/24 02:38:42;;;;;;;14.88;1.95;;;;;;;9.96;100.00;99752.44;5059435;28;20037;-74
2023/03/24 02:41:21;;;;;;;8.48;1.88;;;;;;;9.91;100.00;99764.91;5060988;28;20328;-74
2023/03/24 02:44:07;;;;;;;;;;;;;;;9.84;100.00;99758.31;5041556;28;20131;-74
2023/03/24 02:46:43;;;;;;;9.45;1.92;;;;;;;9.79;100.00;99750.75;5058756;28;19924;-74
2023/03/24 02:49:33;;;;;;;10.63;2.45;;;;;;;9.73;100.00;99751.06;5061194;28;20331;-74
2023/03/24 02:52:06;;;;;;;8.57;1.80;;;;;;;9.68;100.00;99764.41;5045865;28;20041;-74
2023/03/24 02:54:43;;;;;;;10.63;1.73;;;;;;;9.65;100.00;99787.25;5060578;28;20032;-74
2023/03/24 02:57:17;;;;;;;12.05;2.00;;;;;;;9.61;100.00;99795.25;5060627;28;20276;-74
2023/03/24 02:59:52;;;;;;;9.88;1.80;;;;;;;9.56;100.00;99783.34;5060088;28;20055;-74
2023/03/24 03:02:27;;;;;;;7.80;1.45;;;;;;;9.52;100.00;99792.28;5060630;28;20348;-74
2023/03/24 03:04:56;;;;;;;14.05;1.85;;;;;;;9.49;100.00;99789.84;5060171;28;20037;-74
2023/03/24 03:07:25;;;;;;;17.27;2.15;;;;;;;9.44;100.00;99789.22;5056815;28;20043;-74
2023/03/24 03:09:58;;;;;;;10.63;1.58;;;;;;;9.36;100.00;99793.09;5059999;28;20033;-74
2023/03/24 03:12:26;;;;;;;7.35;1.63;;;;;;;9.32;100.00;99799.41;5060037;28;20037;-74
2023/03/24 03:14:58;;;;;;;8.82;1.75;;;;;;;9.27;100.00;99796.19;5060413;28;20256;-73
2023/03/24 03:17:29;;;;;;;9.55;1.83;;;;;;;9.23;100.00;99803.31;5060404;28;20103;-74
2023/03/24 03:20:01;;;;;;;12.93;2.83;;;;;;;9.23;100.00;99800.72;5059747;28;20256;-74
2023/03/24 03:22:34;;;;;;;13.05;2.00;;;;;;;9.20;100.00;99802.66;5060614;28;20051;-74
2023/03/24 03:25:02;;;;;;;9.45;1.85;;;;;;;9.21;100.00;99817.41;5060022;28;20044;-74
2023/03/24 03:27:37;;;;;;;5.30;1.35;;;;;;;9.20;100.00;99813.97;5060121;28;20111;-74
2023/03/24 03:30:32;;;;;;;12.77;2.03;;;;;;;9.21;100.00;99815.63;5060341;28;20249;-74
2023/03/24 03:33:07;;;;;;;13.60;2.20;;;;;;;9.18;100.00;99814.94;5058881;28;20247;-74
2023/03/24 03:35:37;;;;;;;11.68;2.90;;;;;;;9.17;100.00;99828.94;5059211;28;20081;-74
2023/03/24 03:38:23;;;;;;;19.70;2.95;;;;;;;9.16;100.00;99829.84;5059459;28;20292;-74
2023/03/24 03:40:58;;;;;;;19.75;3.45;;;;;;;9.15;100.00;99825.53;5058940;28;20029;-73
2023/03/24 03:43:25;;;;;;;16.77;3.65;;;;;;;9.13;100.00;99824.78;5060291;28;20044;-72
2023/03/24 03:45:51;;;;;;;21.02;4.13;;;;;;;9.15;100.00;99822.94;5059385;28;20095;-72
2023/03/24 03:48:17;;;;;;;19.90;3.95;;;;;;;9.14;100.00;99822.09;5058822;28;20332;-72
2023/03/24 03:50:44;;;;;;;13.95;3.80;;;;;;;9.14;100.00;99834.31;5058995;28;20024;-71
2023/03/24 03:53:12;;;;;;;26.90;4.50;;;;;;;9.13;100.00;99825.66;5060330;28;20134;-71
2023/03/24 03:55:37;;;;;;;19.30;4.32;;;;;;;9.14;100.00;99824.69;5058801;28;20228;-71
2023/03/24 03:58:03;;;;;;;18.55;4.82;;;;;;;9.13;100.00;99836.09;5059857;28;20033;-71
2023/03/24 04:00:29;;;;;;;17.75;4.28;;;;;;;9.13;100.00;99823.03;5059041;28;20028;-71
2023/03/24 04:03:24;;;;;;;19.35;4.50;;;;;;;9.15;100.00;99828.16;5058821;28;20048;-71
2023/03/24 04:05:52;;;;;;;19.20;4.45;;;;;;;9.14;100.00;99860.44;5059144;28;20058;-71
2023/03/24 04:08:40;;;;;;;25.00;4.57;;;;;;;9.11;100.00;99840.53;5059550;28;20041;-71
2023/03/24 04:11:24;;;;;;;19.92;5.00;;;;;;;9.10;100.00;99845.84;5045391;28;20029;-71
2023/03/24 04:13:52;;;;;;;17.42;4.05;;;;;;;9.05;100.00;99859.13;5059159;28;20194;-71
2023/03/24 04:16:40;;;;;;;27.00;4.82;;;;;;;9.03;100.00;99853.97;5059065;28;20063;-71
2023/03/24 04:19:26;;;;;;;32.70;5.68;;;;;;;9.00;100.00;99851.53;5058782;28;20332;-71
2023/03/24 04:22:08;;;;;;;26.05;5.00;;;;;;;8.99;100.00;99860.28;5058595;28;20071;-71
2023/03/24 04:24:43;;;;;;;17.98;3.88;;;;;;;8.98;100.00;99861.19;5058448;28;20328;-71
2023/03/24 04:27:26;;;;;;;16.45;3.30;;;;;;;8.98;100.00;99866.41;5059064;28;20025;-71
2023/03/24 04:30:29;;;;;;;26.75;4.80;;;;;;;8.94;100.00;99870.09;5058799;28;20047;-71
2023/03/24 04:33:16;;;;;;;29.23;6.20;;;;;;;8.94;100.00;99870.09;5025976;28;20118;-71
2023/03/24 04:35:52;;;;;;;22.83;4.75;;;;;;;8.92;100.00;99884.16;5054780;28;20060;-71
2023/03/24 04:38:29;;;;;;;29.83;6.10;;;;;;;8.89;100.00;99876.47;5039051;28;20091;-71
2023/03/24 04:40:55;;;;;;;30.15;5.57;;;;;;;8.88;100.00;99874.75;5054938;28;20233;-71
2023/03/24 04:43:26;;;;;;;40.13;6.47;;;;;;;8.87;100.00;99888.75;5059233;28;20358;-71
2023/03/24 04:45:56;;;;;;;29.60;5.93;;;;;;;8.86;100.00;99887.94;5058158;28;20044;-71
2023/03/24 04:48:23;;;;;;;30.40;5.18;;;;;;;8.85;100.00;99896.66;5058898;28;20104;-71
2023/03/24 04:50:59;;;;;;;19.83;5.20;;;;;;;8.86;100.00;99897.50;5058635;28;20029;-71
2023/03/24 04:53:24;;;;;;;30.33;5.72;;;;;;;8.84;100.00;99898.44;5040451;28;20037;-71
2023/03/24 04:55:49;;;;;;;25.30;5.50;;;;;;;8.85;100.00;99907.09;5058138;28;20049;-71
2023/03/24 04:58:16;;;;;;;23.48;5.25;;;;;;;8.87;100.00;99907.03;5058153;28;20033;-71
2023/03/24 05:00:45;;;;;;;27.67;5.40;;;;;;;8.88;100.00;99901.75;5058159;28;20044;-71
2023/03/24 05:03:13;;;;;;;27.02;5.10;;;;;;;8.90;100.00;99899.06;5058843;28;20064;-71
2023/03/24 05:05:49;;;;;;;27.77;5.50;;;;;;;8.91;100.00;99909.41;5058136;28;20028;-71
2023/03/24 05:08:16;;;;;;;25.15;4.32;;;;;;;8.91;100.00;99911.19;5058124;28;20064;-71
2023/03/24 05:10:42;;;;;;;28.80;4.25;;;;;;;8.92;100.00;99903.28;5058266;28;20036;-71
2023/03/24 05:13:08;;;;;;;24.77;4.05;;;;;;;8.91;100.00;99919.03;5057376;28;20052;-71
2023/03/24 05:15:34;;;;;;;20.23;3.30;;;;;;;8.92;100.00;99923.34;5057623;28;20065;-71
2023/03/24 05:17:59;;;;;;;20.50;3.85;;;;;;;8.93;100.00;99928.50;5057650;28;20120;-72
2023/03/24 05:20:25;;;;;;;23.05;3.15;;;;;;;8.94;100.00;99924.94;5057910;28;20053;-72
2023/03/24 05:22:52;;;;;;;21.63;3.70;;;;;;;8.92;100.00;99933.78;5057560;28;20346;-71
2023/03/24 05:25:18;;;;;;;22.13;4.78;;;;;;;8.91;100.00;99927.69;5057784;28;20422;-71
2023/03/24 05:27:44;;;;;;;15.02;3.75;;;;;;;8.92;100.00;99939.84;5057611;28;20639;-71
2023/03/24 05:30:10;;;;;;;18.00;4.60;;;;;;;8.93;100.00;99945.91;5058182;28;20216;-71
2023/03/24 05:32:36;;;;;;;15.27;3.60;;;;;;;8.95;100.00;99949.28;5057207;28;20150;-72
2023/03/24 05:35:02;;;;;;;24.90;4.95;;;;;;;8.95;100.00;99937.09;5057859;28;20037;-72
2023/03/24 05:37:27;;;;;;;18.42;3.10;;;;;;;8.99;100.00;99950.84;5057555;28;20083;-72
2023/03/24 05:39:53;;;;;;;19.25;3.75;;;;;;;8.99;100.00;99946.47;5057926;28;20040;-71
2023/03/24 05:42:19;;;;;;;17.25;3.10;;;;;;;9.01;100.00;99951.63;5057320;28;20086;-71
2023/03/24 05:44:45;;;;;;;20.73;2.90;;;;;;;9.01;100.00;99949.84;5057450;28;20102;-71
2023/03/24 05:47:14;;;;;;;18.67;3.50;;;;;;;9.03;100.00;99963.66;5057463;28;20108;-71
2023/03/24 05:49:41;;;;;;;13.65;2.78;;;;;;;9.03;100.00;99961.06;5056515;28;20032;-71
2023/03/24 05:52:08;;;;;;;22.08;3.30;;;;;;;9.02;100.00;99954.16;5056598;28;20392;-71
2023/03/24 05:54:33;;;;;;;18.27;3.70;;;;;;;9.02;100.00;99967.22;5056974;28;20045;-71
2023/03/24 05:56:59;;;;;;;20.40;3.25;;;;;;;9.03;100.00;99968.88;5057150;28;20567;-71
2023/03/24 05:59:24;;;;;;;22.10;3.65;;;;;;;9.05;100.00;99970.59;5057581;28;20033;-71
2023/03/24 06:01:52;;;;;;;17.67;3.17;;;;;;;9.02;100.00;99971.56;5056831;28;20032;-71
2023/03/24 06:04:19;;;;;;;24.30;3.38;;;;;;;9.03;100.00;99986.34;5056768;28;20116;-71
2023/03/24 06:06:45;;;;;;;20.33;3.70;;;;;;;9.01;100.00;99982.94;5056950;28;20037;-71
2023/03/24 06:09:11;;;;;;;25.33;3.88;;;;;;;9.01;100.00;99975.13;5057325;28;20164;-71
2023/03/24 06:11:36;;;;;;;18.98;3.08;;;;;;;9.03;100.00;99981.94;5057914;28;20048;-71
2023/03/24 06:14:01;;;;;;;16.23;3.30;;;;;;;9.04;100.00;100003.72;5064150;28;20040;-71
2023/03/24 06:16:28;;;;;;;16.13;4.15;;;;;;;9.03;100.00;99986.34;5063903;28;20040;-71
2023/03/24 06:18:53;;;;;;;27.02;4.53;;;;;;;9.05;100.00;99984.50;5062884;28;20040;-71
2023/03/24 06:21:19;;;;;;;22.05;4.10;;;;;;;9.04;100.00;99993.25;5063675;28;20245;-71
2023/03/24 06:23:45;;;;;;;17.63;2.88;;;;;;;9.05;100.00;99996.72;5063551;28;20044;-71
2023/03/24 06:26:13;;;;;;;17.98;3.20;;;;;;;9.05;100.00;100004.53;5063969;28;20393;-71
2023/03/24 06:28:38;;;;;;;16.65;3.00;;;;;;;9.07;100.00;100007.94;5063081;28;20067;-71
2023/03/24 06:31:05;;;;;;;17.90;2.92;;;;;;;9.05;99.75;100008.00;5073142;28;20032;-71
2023/03/24 06:33:30;;;;;;;19.58;3.70;;;;;;;9.06;100.00;100007.09;5074142;28;20048;-71
2023/03/24 06:35:55;;;;;;;23.90;4.13;;;;;;;9.07;100.00;100011.38;5063351;28;20108;-71
2023/03/24 06:38:21;;;;;;;23.23;3.58;;;;;;;9.07;99.73;100015.75;5063662;28;20043;-71
2023/03/24 06:40:46;;;;;;;20.95;2.67;;;;;;;9.07;99.71;100008.78;5063189;28;20034;-71
2023/03/24 06:43:12;;;;;;;18.42;3.22;;;;;;;9.08;99.96;100009.59;5063682;28;20044;-73
2023/03/24 06:45:38;;;;;;;20.98;2.97;;;;;;;9.10;100.00;100023.47;5062813;28;20244;-72
2023/03/24 06:48:04;;;;;;;12.52;2.22;;;;;;;9.11;100.00;100017.31;5063674;28;20397;-72
2023/03/24 06:50:34;;;;;;;26.65;3.95;;;;;;;9.13;100.00;100034.63;5063264;28;20033;-72
2023/03/24 06:53:00;;;;;;;26.45;3.30;;;;;;;9.10;100.00;100029.53;5063917;28;20040;-71
2023/03/24 06:55:26;;;;;;;18.33;2.90;;;;;;;9.13;100.00;100031.13;5063457;28;20067;-71
2023/03/24 06:57:52;;;;;;;15.77;2.80;;;;;;;9.11;100.00;100028.59;5063708;28;20044;-71
2023/03/24 07:00:18;;;;;;;15.13;2.40;;;;;;;9.11;100.00;100041.66;5062432;28;20291;-71
2023/03/24 07:02:44;;;;;;;12.63;2.75;;;;;;;9.12;100.00;100030.28;5062627;28;20326;-71
2023/03/24 07:05:11;;;;;;;26.25;4.10;;;;;;;9.14;100.00;100048.50;5063085;28;20048;-71
2023/03/24 07:07:37;;;;;;;21.23;3.10;;;;;;;9.15;100.00;100052.81;5063067;28;20064;-71
2023/03/24 07:10:04;;;;;;;17.50;3.40;;;;;;;9.16;100.00;100036.22;5063425;28;20045;-71
2023/03/24 07:12:30;;;;;;;25.00;3.80;;;;;;;9.16;100.00;100049.28;5063380;28;20228;-71
2023/03/24 07:14:56;;;;;;;13.77;2.83;;;;;;;9.16;100.00;100054.50;5062835;28;20033;-71
2023/03/24 07:17:22;;;;;;;20.63;3.05;;;;;;;9.17;100.00;100059.66;5062454;28;20052;-71
2023/03/24 07:19:47;;;;;;;14.73;2.47;;;;;;;9.18;100.00;100065.72;5062268;28;20041;-71
2023/03/24 07:22:13;;;;;;;24.50;3.58;;;;;;;9.19;100.00;100070.03;5058729;28;20336;-71
2023/03/24 07:24:38;;;;;;;14.82;2.17;;;;;;;9.21;100.00;100070.81;5040049;28;20332;-71
2023/03/24 07:27:04;;;;;;;19.45;3.15;;;;;;;9.21;100.00;100071.66;5059202;28;20064;-71
2023/03/24 07:29:29;;;;;;;18.15;3.22;;;;;;;9.22;100.00;100048.97;5059460;28;20031;-72
2023/03/24 07:31:57;;;;;;;16.10;2.60;;;;;;;9.24;100.00;100070.69;5058722;28;20071;-71
2023/03/24 07:34:24;;;;;;;18.07;3.43;;;;;;;9.25;100.00;100074.13;5056711;28;20040;-71
2023/03/24 07:36:50;;;;;;;17.27;2.35;;;;;;;9.26;100.00;100074.06;5058537;28;20201;-71
2023/03/24 07:39:16;;;;;;;20.52;3.63;;;;;;;9.27;100.00;100069.69;5058673;28;20063;-71
2023/03/24 07:41:42;;;;;;;15.05;2.58;;;;;;;9.26;99.60;100081.91;5057659;28;20090;-71
2023/03/24 07:44:08;;;;;;;20.45;2.67;;;;;;;9.27;98.79;100080.13;5055553;28;20036;-72
2023/03/24 07:46:34;;;;;;;8.65;2.38;;;;;;;9.29;98.86;100073.06;5054099;28;20116;-71
2023/03/24 07:49:00;;;;;;;13.48;2.38;;;;;;;9.31;99.40;100092.97;5057740;28;20041;-72
2023/03/24 07:51:26;;;;;;;15.43;3.08;;;;;;;9.33;99.02;100088.53;5056607;28;20028;-71
2023/03/24 07:53:51;;;;;;;21.13;3.10;;;;;;;9.36;99.48;100097.97;5054456;28;20800;-71
2023/03/24 07:56:17;;;;;;;16.63;2.88;;;;;;;9.37;99.22;100097.06;5056727;28;20094;-71
2023/03/24 07:58:42;;;;;;;21.52;2.88;;;;;;;9.38;98.60;100090.91;5055590;28;20101;-71
2023/03/24 08:01:11;;;;;;;20.65;2.67;;;;;;;9.41;98.69;100098.63;5051969;28;20394;-72
2023/03/24 08:03:37;;;;;;;16.02;2.38;;;;;;;9.44;98.20;100098.47;5054456;28;20036;-71
2023/03/24 08:06:04;;;;;;;14.10;3.10;;;;;;;9.45;98.34;100094.94;5054400;28;20088;-71
2023/03/24 08:08:30;;;;;;;17.73;2.92;;;;;;;9.45;98.17;100102.78;5056408;28;20359;-71
2023/03/24 08:10:56;;;;;;;14.43;3.08;;;;;;;9.45;97.42;100107.16;5039527;28;20029;-71
2023/03/24 08:13:21;;;;;;;14.52;2.63;;;;;;;9.46;97.10;100108.84;5056793;28;20388;-71
2023/03/24 08:15:47;;;;;;;14.10;2.60;;;;;;;9.46;97.02;100104.47;5057329;28;20096;-71
2023/03/24 08:18:12;;;;;;;17.90;2.97;;;;;;;9.47;96.73;100116.59;5057293;28;20045;-71
2023/03/24 08:20:38;;;;;;;9.70;2.95;;;;;;;9.50;97.31;100110.41;5057162;28;20100;-71
2023/03/24 08:23:05;;;;;;;16.85;3.17;;;;;;;9.50;97.16;100120.88;5054863;28;20041;-71
2023/03/24 08:25:31;;;;;;;16.60;2.67;;;;;;;9.52;97.78;100125.09;5049031;28;20060;-72
2023/03/24 08:27:56;;;;;;;16.65;2.70;;;;;;;9.54;98.33;100123.25;5054522;28;20041;-72
2023/03/24 08:30:24;;;;;;;13.52;2.30;;;;;;;9.56;98.05;100123.16;5056048;28;20041;-71
2023/03/24 08:32:55;;;;;;;19.35;3.15;;;;;;;9.59;97.19;100123.03;5056342;28;20035;-71
2023/03/24 08:35:24;;;;;;;12.20;2.50;;;;;;;9.63;96.94;100121.97;5056027;28;20261;-71
2023/03/24 08:37:50;;;;;;;13.48;2.40;;;;;;;9.64;95.63;100128.88;5057504;28;20286;-71
2023/03/24 08:40:19;;;;;;;13.55;2.38;;;;;;;9.64;95.65;100126.28;5056461;28;20084;-71
2023/03/24 08:42:48;;;;;;;13.70;2.45;;;;;;;9.65;96.24;100140.19;5056203;28;20032;-71
2023/03/24 08:45:13;;;;;;;14.40;2.92;;;;;;;9.66;95.66;100136.63;5057049;28;20060;-71
2023/03/24 08:47:39;;;;;;;12.70;2.45;;;;;;;9.67;95.64;100130.50;5057463;28;20041;-71
2023/03/24 08:50:06;;;;;;;11.82;2.60;;;;;;;9.68;95.68;100143.50;5053324;28;20041;-71
2023/03/24 08:52:32;;;;;;;18.13;2.85;;;;;;;9.68;95.26;100138.28;5057549;28;20035;-71
2023/03/24 08:54:58;;;;;;;13.23;2.17;;;;;;;9.70;95.83;100153.91;5057328;28;20188;-71
2023/03/24 08:57:24;;;;;;;17.00;2.80;;;;;;;9.71;95.27;100161.63;5057190;28;20299;-71
2023/03/24 08:59:49;;;;;;;18.95;3.00;;;;;;;9.72;94.47;100157.28;5054765;28;20313;-71
2023/03/24 09:02:15;;;;;;;14.73;2.65;;;;;;;9.72;94.25;100165.13;5057188;28;20075;-71
2023/03/24 09:04:44;;;;;;;17.33;3.05;;;;;;;9.72;93.30;100160.72;5055995;28;20175;-71
2023/03/24 09:07:11;;;;;;;19.17;2.85;;;;;;;9.75;91.50;100168.44;5056395;28;20037;-71
2023/03/24 09:09:38;;;;;;;10.40;2.00;;;;;;;9.77;93.18;100174.44;5056720;28;20098;-71
2023/03/24 09:12:03;;;;;;;15.35;2.22;;;;;;;9.78;91.56;100170.03;5056383;28;20271;-71
2023/03/24 09:14:29;;;;;;;18.08;2.97;;;;;;;9.78;91.28;100186.56;5057590;28;20086;-71
2023/03/24 09:16:55;;;;;;;25.10;3.40;;;;;;;9.80;90.80;100174.31;5056580;28;20036;-71
2023/03/24 09:19:20;;;;;;;33.20;2.85;;;;;;;9.82;89.93;100174.19;5056425;28;20095;-71
2023/03/24 09:21:47;;;;;;;24.85;3.45;;;;;;;9.84;90.33;100187.22;5054935;28;20040;-71
2023/03/24 09:24:13;;;;;;;24.95;3.60;;;;;;;9.89;91.19;100180.00;5056463;28;20032;-71
2023/03/24 09:26:39;;;;;;;17.27;3.03;;;;;;;9.92;91.10;100182.47;5055252;28;20029;-71
2023/03/24 09:29:04;;;;;;;14.40;2.50;;;;;;;9.94;92.14;100188.47;5056933;28;20052;-71
2023/03/24 09:31:30;;;;;;;20.05;2.83;;;;;;;9.97;90.21;100201.41;5056611;28;20174;-71
2023/03/24 09:33:55;;;;;;;19.80;2.78;;;;;;;10.03;89.95;100195.03;5056219;28;20086;-71
2023/03/24 09:36:21;;;;;;;19.60;3.35;;;;;;;10.09;91.24;100192.94;5056562;28;20051;-71
2023/03/24 09:38:46;;;;;;;15.48;2.63;;;;;;;10.16;91.56;100196.94;5054429;28;20032;-71
2023/03/24 09:41:17;;;;;;;13.32;2.47;;;;;;;10.17;90.29;100197.81;5053796;28;20060;-71
2023/03/24 09:44:23;;;;;;;17.88;3.20;;;;;;;10.19;90.98;100196.81;5056192;28;20029;-72
2023/03/24 09:46:53;;;;;;;17.38;2.58;;;;;;;10.21;90.60;100194.13;5015642;28;20045;-71
2023/03/24 09:49:26;;;;;;;16.63;2.42;;;;;;;10.22;90.86;100182.72;5055934;28;20105;-71
2023/03/24 09:51:59;;;;;;;18.08;2.83;;;;;;;10.22;91.16;100190.56;5056072;28;20063;-71
2023/03/24 09:54:43;;;;;;;19.90;2.90;;;;;;;10.22;90.78;100193.19;5053690;28;20037;-71
2023/03/24 09:57:26;;;;;;;11.85;2.63;;;;;;;10.26;91.16;100202.59;5056989;28;20437;-71
2023/03/24 09:59:51;;;;;;;18.98;2.97;;;;;;;10.29;89.18;100207.66;5055957;28;20040;-71
2023/03/24 10:02:21;;;;;;;11.50;2.75;;;;;;;10.31;89.83;100190.13;5056614;28;20028;-71
2023/03/24 10:04:48;;;;;;;9.43;2.95;;;;;;;10.31;91.24;100205.84;5055815;28;20036;-72
2023/03/24 10:07:24;;;;;;;13.82;2.33;;;;;;;10.29;91.05;100204.22;5056199;28;20063;-71
2023/03/24 10:09:55;;;;;;;20.50;2.70;;;;;;;10.31;88.61;100215.47;5047252;28;20390;-71
2023/03/24 10:12:38;;;;;;;19.17;3.22;;;;;;;10.34;87.51;100212.72;5042590;28;20943;-71
2023/03/24 10:15:29;;;;;;;12.68;2.85;;;;;;;10.38;89.19;100204.63;5040216;28;20217;-71
2023/03/24 10:18:33;;;;;;;13.57;3.50;;;;;;;10.41;88.08;100213.28;5035609;28;20088;-71
2023/03/24 10:21:31;;;;;;;21.52;3.28;;;;;;;10.37;88.99;100210.78;5031421;28;20104;-71
2023/03/24 10:23:56;;;;;;;16.42;2.92;;;;;;;10.38;89.08;100212.47;5020221;28;20053;-71
2023/03/24 10:26:25;;;;;;;13.32;2.75;;;;;;;10.42;88.85;100205.31;5030427;28;20231;-71
2023/03/24 10:29:03;;;;;;;10.27;2.40;;;;;;;10.46;89.21;100206.88;5030948;28;20065;-71
2023/03/24 10:31:32;;;;;;;14.80;2.90;;;;;;;10.55;88.57;100205.53;5029985;28;20030;-71
2023/03/24 10:33:58;;;;;;;12.35;3.13;;;;;;;10.68;89.02;100203.16;5029925;28;20053;-71
2023/03/24 10:36:24;;;;;;;12.75;2.85;;;;;;;10.76;87.48;100208.84;5029952;28;20205;-71
2023/03/24 10:38:50;;;;;;;16.70;2.55;;;;;;;10.80;88.26;100202.50;5032089;28;20263;-71
2023/03/24 10:41:23;;;;;;;14.90;2.67;;;;;;;10.85;88.67;100202.28;5033081;28;20037;-71
2023/03/24 10:43:50;;;;;;;14.80;3.00;;;;;;;10.86;88.56;100210.06;5031742;28;20140;-71
2023/03/24 10:46:21;;;;;;;13.93;3.28;;;;;;;10.87;89.01;100205.69;5035352;28;20342;-71
2023/03/24 10:48:53;;;;;;;8.85;2.45;;;;;;;10.88;89.66;100194.28;5031045;28;20200;-71
2023/03/24 10:51:20;;;;;;;8.07;2.47;;;;;;;10.90;90.43;100201.13;5030932;28;20059;-71
2023/03/24 10:53:47;;;;;;;13.27;2.50;;;;;;;10.90;88.54;100202.91;5029963;28;20284;-71
2023/03/24 10:56:40;;;;;;;13.68;2.53;;;;;;;10.90;88.60;100195.88;5030690;28;20041;-71
2023/03/24 10:59:18;;;;;;;11.50;3.55;;;;;;;10.91;88.78;100197.59;5032351;28;20353;-71
2023/03/24 11:01:44;;;;;;;20.80;3.15;;;;;;;10.91;87.27;100196.72;5034538;28;20106;-71
2023/03/24 11:04:15;;;;;;;16.00;3.20;;;;;;;10.90;85.82;100202.91;5041014;28;20321;-71
2023/03/24 11:07:12;;;;;;;16.20;2.78;;;;;;;10.90;86.43;100210.75;5039018;28;20109;-71
2023/03/24 11:09:44;;;;;;;12.40;2.25;;;;;;;10.93;85.91;100221.06;5038832;28;20033;-72
2023/03/24 11:12:25;;;;;;;14.48;1.63;;;;;;;10.86;83.57;100235.41;5039886;28;20032;-71
2023/03/24 11:14:52;;;;;;;20.25;1.90;;;;;;;10.79;83.49;100219.19;5038227;28;20117;-71
2023/03/24 11:17:20;;;;;;;20.92;2.20;;;;;;;10.70;83.32;100225.72;5036106;28;20045;-71
2023/03/24 11:19:51;;;;;;;16.48;2.28;;;;;;;10.63;82.93;100220.88;5057700;28;20108;-71
2023/03/24 11:22:17;;;;;;;12.07;1.77;;;;;;;10.60;83.63;100224.47;5058876;28;20048;-71
2023/03/24 11:24:42;;;;;;;14.65;1.80;;;;;;;10.57;83.52;100217.66;5058168;28;20252;-71
2023/03/24 11:27:17;;;;;;;9.23;1.33;;;;;;;10.57;84.98;100217.66;5059763;28;20151;-71
2023/03/24 11:29:44;;;;;;;22.50;1.95;;;;;;;10.62;83.15;100272.38;5059113;28;20032;-71
2023/03/24 11:32:26;;;;;;;13.85;1.73;;;;;;;10.68;83.76;100231.97;5059815;28;20036;-71
2023/03/24 11:35:01;;;;;;;22.35;2.38;;;;;;;10.70;83.66;100228.34;5058506;28;20020;-71
2023/03/24 11:37:32;;;;;;;13.52;1.73;;;;;;;10.73;83.22;100243.03;5059309;28;20068;-71
2023/03/24 11:40:13;;;;;;;9.27;2.05;;;;;;;10.74;82.72;100239.50;5058887;28;20033;-71